Independence, KS

11:43 AM CDT on July 27, 2016 (GMT -0500)
Independence Municipal | | Change Station

Elev 823 ft 37.16 °N, 95.78 °W | Updated 8 minutes ago

Clear
Clear
82 °F
Feels Like 87 °F
N
0
Wind Variable Wind from North

Today
High -- | Low -- °F
--% Chance of Precip.
Yesterday
High -- | Low -- °F
Precip. -- in
Pressure 29.98 in
Visibility 10.0 miles
Clouds Clear
Heat Index 87 °F
Dew Point 72 °F
Humidity 70%
Rainfall 0.00 in
Snow Depth Not available.
6:23 AM 8:34 PM
Last Quarter, 42% visible
METAR KIDP 271635Z AUTO 00000KT 10SM CLR 28/22 A2998 RMK AO2
Pressure 29.98 in
Visibility 10.0 miles
Clouds Clear
Heat Index 87 °F
Dew Point 72 °F
Humidity 70%
Rainfall 0.00 in
Snow Depth Not available.
6:23 AM 8:34 PM
Last Quarter, 42% visible
METAR KIDP 271635Z AUTO 00000KT 10SM CLR 28/22 A2998 RMK AO2

10-Day Weather Forecast

Almanac

Astronomy

Jul. 27, 2016 Rise Set
Actual Time
Civil Twilight
Nautical Twilight
Astronomical Twilight
Moon
Length of Visible Light
Length of Day
Tomorrow will be .
, % of the Moon is Illuminated

Today's Extremes

State Highs State Lows

Community

WunderPhotos

Upload Photos

1,927,880 photos uploaded!

WunderBlog® & News

Nearby

Air Quality

  Air Quality AQ Index Pollutant
Not available.

Snow Depth

Station Depth Elevation

Earthquake Activity

City Distance Mag. Time & Date
Minimum magnitude displayed is 2.5.

Coastal Water Temperatures

Place Temperature

Stations

Nearby Weather Stations

Station Location Temp. Windchill Dew Point Humidity Wind Precip. Elev Updated Type
                   

Watches & Warnings

There are currently no watches in effect.